sensor_id;sensor_type;location;lat;lon;timestamp;P1;durP1;ratioP1;P2;durP2;ratioP2
58615;SDS011;44385;51.992;4.206;2023-12-07T00:00:49;17.15;;;9.27;;
58615;SDS011;44385;51.992;4.206;2023-12-07T00:03:16;15.07;;;8.70;;
58615;SDS011;44385;51.992;4.206;2023-12-07T00:05:43;17.17;;;9.57;;
58615;SDS011;44385;51.992;4.206;2023-12-07T00:08:13;16.08;;;9.00;;
58615;SDS011;44385;51.992;4.206;2023-12-07T00:10:40;17.23;;;9.63;;
58615;SDS011;44385;51.992;4.206;2023-12-07T00:13:06;13.63;;;9.15;;
58615;SDS011;44385;51.992;4.206;2023-12-07T00:15:33;15.80;;;9.25;;
58615;SDS011;44385;51.992;4.206;2023-12-07T00:18:01;14.20;;;9.75;;
58615;SDS011;44385;51.992;4.206;2023-12-07T00:20:28;14.35;;;9.70;;
58615;SDS011;44385;51.992;4.206;2023-12-07T00:22:54;14.85;;;9.32;;
58615;SDS011;44385;51.992;4.206;2023-12-07T00:25:21;16.30;;;10.45;;
58615;SDS011;44385;51.992;4.206;2023-12-07T00:27:51;15.35;;;9.65;;
58615;SDS011;44385;51.992;4.206;2023-12-07T00:30:18;13.43;;;9.75;;
58615;SDS011;44385;51.992;4.206;2023-12-07T00:32:45;12.75;;;9.48;;
58615;SDS011;44385;51.992;4.206;2023-12-07T00:35:13;15.52;;;9.57;;
58615;SDS011;44385;51.992;4.206;2023-12-07T00:37:41;13.65;;;9.90;;
58615;SDS011;44385;51.992;4.206;2023-12-07T00:40:08;16.95;;;10.65;;
58615;SDS011;44385;51.992;4.206;2023-12-07T00:42:37;15.77;;;10.15;;
58615;SDS011;44385;51.992;4.206;2023-12-07T00:45:04;15.07;;;9.43;;
58615;SDS011;44385;51.992;4.206;2023-12-07T00:47:31;11.52;;;9.55;;
58615;SDS011;44385;51.992;4.206;2023-12-07T00:49:57;13.07;;;10.52;;
58615;SDS011;44385;51.992;4.206;2023-12-07T00:52:26;23.00;;;9.90;;
58615;SDS011;44385;51.992;4.206;2023-12-07T00:54:52;14.43;;;9.68;;
58615;SDS011;44385;51.992;4.206;2023-12-07T00:57:19;19.30;;;9.75;;
58615;SDS011;44385;51.992;4.206;2023-12-07T00:59:45;24.55;;;10.43;;
58615;SDS011;44385;51.992;4.206;2023-12-07T01:02:12;12.52;;;10.70;;
58615;SDS011;44385;51.992;4.206;2023-12-07T01:04:38;16.15;;;9.93;;
58615;SDS011;44385;51.992;4.206;2023-12-07T01:07:05;20.55;;;10.68;;
58615;SDS011;44385;51.992;4.206;2023-12-07T01:09:34;15.70;;;9.82;;
58615;SDS011;44385;51.992;4.206;2023-12-07T01:12:01;19.17;;;9.67;;
58615;SDS011;44385;51.992;4.206;2023-12-07T01:14:28;12.65;;;9.02;;
58615;SDS011;44385;51.992;4.206;2023-12-07T01:16:55;12.18;;;9.45;;
58615;SDS011;44385;51.992;4.206;2023-12-07T01:19:22;15.85;;;10.30;;
58615;SDS011;44385;51.992;4.206;2023-12-07T01:21:50;18.88;;;11.88;;
58615;SDS011;44385;51.992;4.206;2023-12-07T01:24:16;16.67;;;10.27;;
58615;SDS011;44385;51.992;4.206;2023-12-07T01:26:45;21.65;;;11.73;;
58615;SDS011;44385;51.992;4.206;2023-12-07T01:29:11;19.23;;;10.48;;
58615;SDS011;44385;51.992;4.206;2023-12-07T01:31:39;18.52;;;10.55;;
58615;SDS011;44385;51.992;4.206;2023-12-07T01:34:05;13.05;;;10.05;;
58615;SDS011;44385;51.992;4.206;2023-12-07T01:36:32;15.93;;;9.98;;
58615;SDS011;44385;51.992;4.206;2023-12-07T01:38:58;13.73;;;10.68;;
58615;SDS011;44385;51.992;4.206;2023-12-07T01:41:25;23.65;;;11.00;;
58615;SDS011;44385;51.992;4.206;2023-12-07T01:43:53;15.68;;;11.27;;
58615;SDS011;44385;51.992;4.206;2023-12-07T01:46:19;18.10;;;11.27;;
58615;SDS011;44385;51.992;4.206;2023-12-07T01:48:46;17.05;;;11.25;;
58615;SDS011;44385;51.992;4.206;2023-12-07T01:51:16;13.88;;;11.05;;
58615;SDS011;44385;51.992;4.206;2023-12-07T01:53:43;24.45;;;14.02;;
58615;SDS011;44385;51.992;4.206;2023-12-07T01:56:13;18.80;;;10.88;;
58615;SDS011;44385;51.992;4.206;2023-12-07T01:58:40;15.68;;;11.23;;
58615;SDS011;44385;51.992;4.206;2023-12-07T02:01:07;15.88;;;12.07;;
58615;SDS011;44385;51.992;4.206;2023-12-07T02:03:38;19.45;;;12.02;;
58615;SDS011;44385;51.992;4.206;2023-12-07T02:06:05;16.65;;;12.02;;
58615;SDS011;44385;51.992;4.206;2023-12-07T02:08:33;18.52;;;12.65;;
58615;SDS011;44385;51.992;4.206;2023-12-07T02:11:00;24.02;;;12.50;;
58615;SDS011;44385;51.992;4.206;2023-12-07T02:13:27;22.15;;;12.65;;
58615;SDS011;44385;51.992;4.206;2023-12-07T02:15:53;19.40;;;13.23;;
58615;SDS011;44385;51.992;4.206;2023-12-07T02:18:24;24.55;;;13.25;;
58615;SDS011;44385;51.992;4.206;2023-12-07T02:20:53;20.00;;;12.57;;
58615;SDS011;44385;51.992;4.206;2023-12-07T02:23:21;18.58;;;12.40;;
58615;SDS011;44385;51.992;4.206;2023-12-07T02:25:51;17.77;;;12.65;;
58615;SDS011;44385;51.992;4.206;2023-12-07T02:28:18;19.17;;;12.02;;
58615;SDS011;44385;51.992;4.206;2023-12-07T02:30:45;18.45;;;11.63;;
58615;SDS011;44385;51.992;4.206;2023-12-07T02:33:12;20.33;;;12.95;;
58615;SDS011;44385;51.992;4.206;2023-12-07T02:35:39;19.48;;;12.90;;
58615;SDS011;44385;51.992;4.206;2023-12-07T02:38:07;16.90;;;12.25;;
58615;SDS011;44385;51.992;4.206;2023-12-07T02:40:33;21.33;;;13.35;;
58615;SDS011;44385;51.992;4.206;2023-12-07T02:43:00;18.50;;;13.75;;
58615;SDS011;44385;51.992;4.206;2023-12-07T02:45:29;19.98;;;13.63;;
58615;SDS011;44385;51.992;4.206;2023-12-07T02:47:56;21.92;;;12.48;;
58615;SDS011;44385;51.992;4.206;2023-12-07T02:50:23;22.20;;;15.18;;
58615;SDS011;44385;51.992;4.206;2023-12-07T02:52:50;20.85;;;14.00;;
58615;SDS011;44385;51.992;4.206;2023-12-07T02:55:16;20.67;;;15.43;;
58615;SDS011;44385;51.992;4.206;2023-12-07T02:57:43;25.50;;;16.08;;
58615;SDS011;44385;51.992;4.206;2023-12-07T03:00:11;23.88;;;17.60;;
58615;SDS011;44385;51.992;4.206;2023-12-07T03:02:40;24.17;;;16.92;;
58615;SDS011;44385;51.992;4.206;2023-12-07T03:05:07;28.00;;;16.80;;
58615;SDS011;44385;51.992;4.206;2023-12-07T03:07:34;24.48;;;17.15;;
58615;SDS011;44385;51.992;4.206;2023-12-07T03:10:00;22.67;;;15.48;;
58615;SDS011;44385;51.992;4.206;2023-12-07T03:12:28;25.88;;;16.77;;
58615;SDS011;44385;51.992;4.206;2023-12-07T03:14:54;33.97;;;18.63;;
58615;SDS011;44385;51.992;4.206;2023-12-07T03:17:23;31.33;;;19.33;;
58615;SDS011;44385;51.992;4.206;2023-12-07T03:19:51;29.73;;;20.38;;
58615;SDS011;44385;51.992;4.206;2023-12-07T03:22:18;37.47;;;20.30;;
58615;SDS011;44385;51.992;4.206;2023-12-07T03:24:45;30.92;;;20.33;;
58615;SDS011;44385;51.992;4.206;2023-12-07T03:27:12;28.70;;;20.13;;
58615;SDS011;44385;51.992;4.206;2023-12-07T03:29:38;31.33;;;19.85;;
58615;SDS011;44385;51.992;4.206;2023-12-07T03:32:05;29.30;;;21.48;;
58615;SDS011;44385;51.992;4.206;2023-12-07T03:34:32;30.63;;;21.40;;
58615;SDS011;44385;51.992;4.206;2023-12-07T03:37:00;34.05;;;22.13;;
58615;SDS011;44385;51.992;4.206;2023-12-07T03:39:26;28.52;;;19.42;;
58615;SDS011;44385;51.992;4.206;2023-12-07T03:41:54;35.38;;;21.73;;
58615;SDS011;44385;51.992;4.206;2023-12-07T03:44:21;36.03;;;24.05;;
58615;SDS011;44385;51.992;4.206;2023-12-07T03:46:51;34.35;;;22.73;;
58615;SDS011;44385;51.992;4.206;2023-12-07T03:49:16;31.38;;;22.35;;
58615;SDS011;44385;51.992;4.206;2023-12-07T03:51:43;37.28;;;25.48;;
58615;SDS011;44385;51.992;4.206;2023-12-07T03:54:11;59.95;;;35.08;;
58615;SDS011;44385;51.992;4.206;2023-12-07T03:56:38;97.22;;;49.55;;
58615;SDS011;44385;51.992;4.206;2023-12-07T03:59:05;114.57;;;49.33;;
58615;SDS011;44385;51.992;4.206;2023-12-07T04:01:32;107.80;;;49.70;;
58615;SDS011;44385;51.992;4.206;2023-12-07T04:03:59;115.80;;;50.13;;
58615;SDS011;44385;51.992;4.206;2023-12-07T04:06:25;148.50;;;54.47;;
58615;SDS011;44385;51.992;4.206;2023-12-07T04:08:52;154.25;;;58.05;;
58615;SDS011;44385;51.992;4.206;2023-12-07T04:11:20;106.65;;;51.90;;
58615;SDS011;44385;51.992;4.206;2023-12-07T04:13:48;157.43;;;53.70;;
58615;SDS011;44385;51.992;4.206;2023-12-07T04:16:19;160.30;;;54.03;;
58615;SDS011;44385;51.992;4.206;2023-12-07T04:18:45;105.47;;;47.67;;
58615;SDS011;44385;51.992;4.206;2023-12-07T04:21:12;105.93;;;47.45;;
58615;SDS011;44385;51.992;4.206;2023-12-07T04:23:38;116.05;;;49.50;;
58615;SDS011;44385;51.992;4.206;2023-12-07T04:26:05;96.63;;;42.92;;
58615;SDS011;44385;51.992;4.206;2023-12-07T04:28:33;112.82;;;47.50;;
58615;SDS011;44385;51.992;4.206;2023-12-07T04:30:59;114.97;;;42.80;;
58615;SDS011;44385;51.992;4.206;2023-12-07T04:33:26;101.22;;;42.88;;
58615;SDS011;44385;51.992;4.206;2023-12-07T04:35:53;95.45;;;41.33;;
58615;SDS011;44385;51.992;4.206;2023-12-07T04:38:19;101.15;;;39.78;;
58615;SDS011;44385;51.992;4.206;2023-12-07T04:40:46;110.68;;;44.13;;
58615;SDS011;44385;51.992;4.206;2023-12-07T04:43:15;112.82;;;43.45;;
58615;SDS011;44385;51.992;4.206;2023-12-07T04:45:43;105.80;;;41.20;;
58615;SDS011;44385;51.992;4.206;2023-12-07T04:48:10;115.35;;;41.30;;
58615;SDS011;44385;51.992;4.206;2023-12-07T04:50:36;101.88;;;38.53;;
58615;SDS011;44385;51.992;4.206;2023-12-07T04:53:03;95.82;;;38.65;;
58615;SDS011;44385;51.992;4.206;2023-12-07T04:55:30;115.25;;;41.30;;
58615;SDS011;44385;51.992;4.206;2023-12-07T04:57:56;127.32;;;39.95;;
58615;SDS011;44385;51.992;4.206;2023-12-07T05:00:23;107.75;;;36.83;;
58615;SDS011;44385;51.992;4.206;2023-12-07T05:02:51;91.85;;;36.83;;
58615;SDS011;44385;51.992;4.206;2023-12-07T05:05:20;88.30;;;37.28;;
58615;SDS011;44385;51.992;4.206;2023-12-07T05:07:47;120.78;;;40.10;;
58615;SDS011;44385;51.992;4.206;2023-12-07T05:10:17;116.47;;;39.15;;
58615;SDS011;44385;51.992;4.206;2023-12-07T05:12:44;124.57;;;38.90;;
58615;SDS011;44385;51.992;4.206;2023-12-07T05:15:10;105.32;;;37.28;;
58615;SDS011;44385;51.992;4.206;2023-12-07T05:17:37;106.53;;;29.55;;
58615;SDS011;44385;51.992;4.206;2023-12-07T05:20:06;82.13;;;29.50;;
58615;SDS011;44385;51.992;4.206;2023-12-07T05:22:33;89.20;;;29.53;;
58615;SDS011;44385;51.992;4.206;2023-12-07T05:25:00;84.60;;;29.60;;
58615;SDS011;44385;51.992;4.206;2023-12-07T05:27:26;106.47;;;29.13;;
58615;SDS011;44385;51.992;4.206;2023-12-07T05:29:53;82.72;;;29.48;;
58615;SDS011;44385;51.992;4.206;2023-12-07T05:32:22;83.93;;;30.05;;
58615;SDS011;44385;51.992;4.206;2023-12-07T05:34:50;87.78;;;28.60;;
58615;SDS011;44385;51.992;4.206;2023-12-07T05:37:18;93.97;;;29.20;;
58615;SDS011;44385;51.992;4.206;2023-12-07T05:39:44;94.18;;;30.05;;
58615;SDS011;44385;51.992;4.206;2023-12-07T05:42:11;102.18;;;31.70;;
58615;SDS011;44385;51.992;4.206;2023-12-07T05:44:38;82.00;;;26.33;;
58615;SDS011;44385;51.992;4.206;2023-12-07T05:47:04;101.65;;;29.63;;
58615;SDS011;44385;51.992;4.206;2023-12-07T05:49:31;75.60;;;28.25;;
58615;SDS011;44385;51.992;4.206;2023-12-07T05:51:57;93.25;;;32.25;;
58615;SDS011;44385;51.992;4.206;2023-12-07T05:54:25;84.72;;;29.52;;
58615;SDS011;44385;51.992;4.206;2023-12-07T05:56:51;119.53;;;29.90;;
58615;SDS011;44385;51.992;4.206;2023-12-07T05:59:18;105.35;;;33.10;;
58615;SDS011;44385;51.992;4.206;2023-12-07T06:01:45;113.28;;;32.03;;
58615;SDS011;44385;51.992;4.206;2023-12-07T06:04:12;113.95;;;34.05;;
58615;SDS011;44385;51.992;4.206;2023-12-07T06:06:38;86.45;;;28.95;;
58615;SDS011;44385;51.992;4.206;2023-12-07T06:09:05;96.53;;;32.08;;
58615;SDS011;44385;51.992;4.206;2023-12-07T06:11:33;88.85;;;30.90;;
58615;SDS011;44385;51.992;4.206;2023-12-07T06:14:00;94.50;;;34.67;;
58615;SDS011;44385;51.992;4.206;2023-12-07T06:16:27;93.65;;;35.10;;
58615;SDS011;44385;51.992;4.206;2023-12-07T06:18:53;89.15;;;34.92;;
58615;SDS011;44385;51.992;4.206;2023-12-07T06:21:20;95.47;;;37.50;;
58615;SDS011;44385;51.992;4.206;2023-12-07T06:23:46;105.03;;;38.63;;
58615;SDS011;44385;51.992;4.206;2023-12-07T06:26:16;107.47;;;39.45;;
58615;SDS011;44385;51.992;4.206;2023-12-07T06:28:44;110.18;;;41.25;;
58615;SDS011;44385;51.992;4.206;2023-12-07T06:31:11;126.03;;;41.20;;
58615;SDS011;44385;51.992;4.206;2023-12-07T06:33:40;109.70;;;40.33;;
58615;SDS011;44385;51.992;4.206;2023-12-07T06:36:06;95.30;;;34.78;;
58615;SDS011;44385;51.992;4.206;2023-12-07T06:38:33;134.98;;;39.55;;
58615;SDS011;44385;51.992;4.206;2023-12-07T06:41:00;101.80;;;36.47;;
58615;SDS011;44385;51.992;4.206;2023-12-07T06:43:26;102.97;;;33.75;;
58615;SDS011;44385;51.992;4.206;2023-12-07T06:45:54;110.50;;;34.72;;
58615;SDS011;44385;51.992;4.206;2023-12-07T06:48:21;120.72;;;34.75;;
58615;SDS011;44385;51.992;4.206;2023-12-07T06:50:50;124.85;;;33.55;;
58615;SDS011;44385;51.992;4.206;2023-12-07T06:53:19;132.80;;;33.58;;
58615;SDS011;44385;51.992;4.206;2023-12-07T06:55:46;103.40;;;29.38;;
58615;SDS011;44385;51.992;4.206;2023-12-07T06:58:13;121.18;;;33.70;;
58615;SDS011;44385;51.992;4.206;2023-12-07T07:00:40;127.13;;;35.17;;
58615;SDS011;44385;51.992;4.206;2023-12-07T07:03:07;109.82;;;29.85;;
58615;SDS011;44385;51.992;4.206;2023-12-07T07:05:36;125.72;;;32.95;;
58615;SDS011;44385;51.992;4.206;2023-12-07T07:08:02;102.10;;;29.73;;
58615;SDS011;44385;51.992;4.206;2023-12-07T07:10:31;126.38;;;31.25;;
58615;SDS011;44385;51.992;4.206;2023-12-07T07:12:59;148.27;;;34.22;;
58615;SDS011;44385;51.992;4.206;2023-12-07T07:15:26;109.18;;;31.45;;
58615;SDS011;44385;51.992;4.206;2023-12-07T07:17:52;106.78;;;32.53;;
58615;SDS011;44385;51.992;4.206;2023-12-07T07:20:23;128.68;;;32.78;;
58615;SDS011;44385;51.992;4.206;2023-12-07T07:22:49;117.32;;;32.78;;
58615;SDS011;44385;51.992;4.206;2023-12-07T07:25:16;111.78;;;32.78;;
58615;SDS011;44385;51.992;4.206;2023-12-07T07:27:45;106.90;;;32.78;;
58615;SDS011;44385;51.992;4.206;2023-12-07T07:30:12;114.90;;;32.40;;
58615;SDS011;44385;51.992;4.206;2023-12-07T07:32:38;125.90;;;34.78;;
58615;SDS011;44385;51.992;4.206;2023-12-07T07:35:05;144.32;;;35.50;;
58615;SDS011;44385;51.992;4.206;2023-12-07T07:37:33;125.35;;;35.42;;
58615;SDS011;44385;51.992;4.206;2023-12-07T07:40:00;113.43;;;35.08;;
58615;SDS011;44385;51.992;4.206;2023-12-07T07:42:31;131.55;;;36.53;;
58615;SDS011;44385;51.992;4.206;2023-12-07T07:44:58;112.75;;;34.80;;
58615;SDS011;44385;51.992;4.206;2023-12-07T07:47:25;122.05;;;36.13;;
58615;SDS011;44385;51.992;4.206;2023-12-07T07:49:51;133.70;;;39.67;;
58615;SDS011;44385;51.992;4.206;2023-12-07T07:52:18;124.40;;;34.53;;
58615;SDS011;44385;51.992;4.206;2023-12-07T07:54:46;119.45;;;36.03;;
58615;SDS011;44385;51.992;4.206;2023-12-07T07:57:13;117.13;;;35.72;;
58615;SDS011;44385;51.992;4.206;2023-12-07T07:59:39;109.70;;;34.85;;
58615;SDS011;44385;51.992;4.206;2023-12-07T08:02:06;130.05;;;36.55;;
58615;SDS011;44385;51.992;4.206;2023-12-07T08:04:32;116.28;;;36.65;;
58615;SDS011;44385;51.992;4.206;2023-12-07T08:06:59;118.43;;;35.65;;
58615;SDS011;44385;51.992;4.206;2023-12-07T08:09:25;112.28;;;34.03;;
58615;SDS011;44385;51.992;4.206;2023-12-07T08:11:53;105.38;;;32.95;;
58615;SDS011;44385;51.992;4.206;2023-12-07T08:14:20;106.97;;;33.83;;
58615;SDS011;44385;51.992;4.206;2023-12-07T08:16:48;109.35;;;30.75;;
58615;SDS011;44385;51.992;4.206;2023-12-07T08:19:18;91.80;;;30.40;;
58615;SDS011;44385;51.992;4.206;2023-12-07T08:21:44;104.90;;;33.70;;
58615;SDS011;44385;51.992;4.206;2023-12-07T08:24:11;100.13;;;31.42;;
58615;SDS011;44385;51.992;4.206;2023-12-07T08:26:38;104.60;;;31.25;;
58615;SDS011;44385;51.992;4.206;2023-12-07T08:29:05;98.50;;;31.00;;
58615;SDS011;44385;51.992;4.206;2023-12-07T08:31:32;105.43;;;32.45;;
58615;SDS011;44385;51.992;4.206;2023-12-07T08:33:58;104.93;;;31.40;;
58615;SDS011;44385;51.992;4.206;2023-12-07T08:36:25;92.15;;;31.17;;
58615;SDS011;44385;51.992;4.206;2023-12-07T08:38:52;98.50;;;31.27;;
58615;SDS011;44385;51.992;4.206;2023-12-07T08:41:19;103.65;;;32.63;;
58615;SDS011;44385;51.992;4.206;2023-12-07T08:43:46;110.85;;;33.03;;
58615;SDS011;44385;51.992;4.206;2023-12-07T08:46:14;114.63;;;33.95;;
58615;SDS011;44385;51.992;4.206;2023-12-07T08:48:41;108.85;;;31.90;;
58615;SDS011;44385;51.992;4.206;2023-12-07T08:51:08;116.82;;;34.67;;
58615;SDS011;44385;51.992;4.206;2023-12-07T08:53:37;117.32;;;34.65;;
58615;SDS011;44385;51.992;4.206;2023-12-07T08:56:04;111.60;;;34.90;;
58615;SDS011;44385;51.992;4.206;2023-12-07T08:58:31;117.05;;;36.55;;
58615;SDS011;44385;51.992;4.206;2023-12-07T09:00:57;123.88;;;39.08;;
58615;SDS011;44385;51.992;4.206;2023-12-07T09:03:25;121.90;;;38.88;;
58615;SDS011;44385;51.992;4.206;2023-12-07T09:05:56;139.77;;;39.22;;
58615;SDS011;44385;51.992;4.206;2023-12-07T09:08:23;130.98;;;38.58;;
58615;SDS011;44385;51.992;4.206;2023-12-07T09:10:50;114.07;;;37.13;;
58615;SDS011;44385;51.992;4.206;2023-12-07T09:13:16;113.00;;;37.42;;
58615;SDS011;44385;51.992;4.206;2023-12-07T09:15:43;119.53;;;39.42;;
58615;SDS011;44385;51.992;4.206;2023-12-07T09:18:10;112.97;;;38.40;;
58615;SDS011;44385;51.992;4.206;2023-12-07T09:20:38;106.43;;;37.85;;
58615;SDS011;44385;51.992;4.206;2023-12-07T09:23:11;110.18;;;37.97;;
58615;SDS011;44385;51.992;4.206;2023-12-07T09:25:37;106.25;;;38.15;;
58615;SDS011;44385;51.992;4.206;2023-12-07T09:28:04;107.93;;;36.58;;
58615;SDS011;44385;51.992;4.206;2023-12-07T09:30:30;115.95;;;40.10;;
58615;SDS011;44385;51.992;4.206;2023-12-07T09:32:58;113.90;;;37.97;;
58615;SDS011;44385;51.992;4.206;2023-12-07T09:35:25;107.90;;;37.58;;
58615;SDS011;44385;51.992;4.206;2023-12-07T09:37:53;98.53;;;34.63;;
58615;SDS011;44385;51.992;4.206;2023-12-07T09:40:20;93.40;;;33.03;;
58615;SDS011;44385;51.992;4.206;2023-12-07T09:42:55;84.38;;;31.83;;
58615;SDS011;44385;51.992;4.206;2023-12-07T09:45:21;91.95;;;33.63;;
58615;SDS011;44385;51.992;4.206;2023-12-07T09:47:48;79.55;;;31.48;;
58615;SDS011;44385;51.992;4.206;2023-12-07T09:50:16;79.53;;;31.10;;
58615;SDS011;44385;51.992;4.206;2023-12-07T09:52:43;81.93;;;30.83;;
58615;SDS011;44385;51.992;4.206;2023-12-07T09:55:11;79.35;;;32.47;;
58615;SDS011;44385;51.992;4.206;2023-12-07T09:57:38;87.70;;;33.95;;
58615;SDS011;44385;51.992;4.206;2023-12-07T10:00:05;73.35;;;30.40;;
58615;SDS011;44385;51.992;4.206;2023-12-07T10:02:36;79.55;;;31.05;;
58615;SDS011;44385;51.992;4.206;2023-12-07T10:05:03;79.82;;;32.45;;
58615;SDS011;44385;51.992;4.206;2023-12-07T10:07:31;67.93;;;28.40;;
58615;SDS011;44385;51.992;4.206;2023-12-07T10:09:58;68.82;;;30.95;;
58615;SDS011;44385;51.992;4.206;2023-12-07T10:12:26;66.38;;;28.33;;
58615;SDS011;44385;51.992;4.206;2023-12-07T10:14:52;69.43;;;28.65;;
58615;SDS011;44385;51.992;4.206;2023-12-07T10:17:19;58.67;;;27.83;;
58615;SDS011;44385;51.992;4.206;2023-12-07T10:19:45;61.63;;;28.55;;
58615;SDS011;44385;51.992;4.206;2023-12-07T10:22:15;55.50;;;26.52;;
58615;SDS011;44385;51.992;4.206;2023-12-07T10:24:41;53.80;;;26.30;;
58615;SDS011;44385;51.992;4.206;2023-12-07T10:27:08;58.67;;;27.08;;
58615;SDS011;44385;51.992;4.206;2023-12-07T10:29:38;50.92;;;24.52;;
58615;SDS011;44385;51.992;4.206;2023-12-07T10:32:05;50.72;;;26.38;;
58615;SDS011;44385;51.992;4.206;2023-12-07T10:34:32;48.88;;;24.27;;
58615;SDS011;44385;51.992;4.206;2023-12-07T10:37:00;38.03;;;22.23;;
58615;SDS011;44385;51.992;4.206;2023-12-07T10:39:29;43.38;;;22.35;;
58615;SDS011;44385;51.992;4.206;2023-12-07T10:41:56;42.72;;;22.23;;
58615;SDS011;44385;51.992;4.206;2023-12-07T10:44:27;39.58;;;23.17;;
58615;SDS011;44385;51.992;4.206;2023-12-07T10:46:55;42.90;;;23.15;;
58615;SDS011;44385;51.992;4.206;2023-12-07T10:49:23;39.33;;;22.55;;
58615;SDS011;44385;51.992;4.206;2023-12-07T10:51:53;38.63;;;22.70;;
58615;SDS011;44385;51.992;4.206;2023-12-07T10:54:23;38.95;;;22.02;;
58615;SDS011;44385;51.992;4.206;2023-12-07T10:59:22;35.08;;;19.52;;
58615;SDS011;44385;51.992;4.206;2023-12-07T11:01:50;35.70;;;20.13;;
58615;SDS011;44385;51.992;4.206;2023-12-07T11:04:22;30.80;;;18.75;;
58615;SDS011;44385;51.992;4.206;2023-12-07T11:06:49;30.23;;;19.02;;
58615;SDS011;44385;51.992;4.206;2023-12-07T11:09:17;36.05;;;18.48;;
58615;SDS011;44385;51.992;4.206;2023-12-07T11:11:47;28.80;;;18.00;;
58615;SDS011;44385;51.992;4.206;2023-12-07T11:14:16;29.00;;;16.60;;
58615;SDS011;44385;51.992;4.206;2023-12-07T11:16:43;29.17;;;17.50;;
58615;SDS011;44385;51.992;4.206;2023-12-07T11:21:52;26.38;;;15.73;;
58615;SDS011;44385;51.992;4.206;2023-12-07T11:24:19;30.70;;;15.85;;
58615;SDS011;44385;51.992;4.206;2023-12-07T11:26:46;28.42;;;15.50;;
58615;SDS011;44385;51.992;4.206;2023-12-07T11:29:13;24.27;;;15.77;;
58615;SDS011;44385;51.992;4.206;2023-12-07T11:31:39;25.25;;;16.70;;
58615;SDS011;44385;51.992;4.206;2023-12-07T11:34:06;22.73;;;16.42;;
58615;SDS011;44385;51.992;4.206;2023-12-07T11:36:38;23.90;;;16.90;;
58615;SDS011;44385;51.992;4.206;2023-12-07T11:39:19;32.25;;;17.67;;
58615;SDS011;44385;51.992;4.206;2023-12-07T11:41:49;32.15;;;18.83;;
58615;SDS011;44385;51.992;4.206;2023-12-07T11:44:17;25.60;;;16.95;;
58615;SDS011;44385;51.992;4.206;2023-12-07T11:46:43;27.98;;;18.10;;
58615;SDS011;44385;51.992;4.206;2023-12-07T11:49:10;23.45;;;16.67;;
58615;SDS011;44385;51.992;4.206;2023-12-07T11:51:37;29.08;;;18.60;;
58615;SDS011;44385;51.992;4.206;2023-12-07T11:54:04;28.52;;;18.40;;
58615;SDS011;44385;51.992;4.206;2023-12-07T11:56:34;25.50;;;17.55;;
58615;SDS011;44385;51.992;4.206;2023-12-07T11:59:01;25.90;;;16.10;;
58615;SDS011;44385;51.992;4.206;2023-12-07T12:01:28;22.60;;;15.75;;
58615;SDS011;44385;51.992;4.206;2023-12-07T12:03:55;21.92;;;14.43;;
58615;SDS011;44385;51.992;4.206;2023-12-07T12:06:23;24.10;;;15.55;;
58615;SDS011;44385;51.992;4.206;2023-12-07T12:08:51;23.77;;;14.73;;
58615;SDS011;44385;51.992;4.206;2023-12-07T12:11:18;21.23;;;15.90;;
58615;SDS011;44385;51.992;4.206;2023-12-07T12:13:46;24.63;;;15.45;;
58615;SDS011;44385;51.992;4.206;2023-12-07T12:18:41;23.27;;;14.85;;
58615;SDS011;44385;51.992;4.206;2023-12-07T12:21:07;24.63;;;15.57;;
58615;SDS011;44385;51.992;4.206;2023-12-07T12:23:35;20.55;;;14.57;;
58615;SDS011;44385;51.992;4.206;2023-12-07T12:26:01;24.45;;;15.10;;
58615;SDS011;44385;51.992;4.206;2023-12-07T12:28:29;23.25;;;15.48;;
58615;SDS011;44385;51.992;4.206;2023-12-07T12:30:59;22.10;;;14.93;;
58615;SDS011;44385;51.992;4.206;2023-12-07T12:33:26;22.90;;;15.88;;
58615;SDS011;44385;51.992;4.206;2023-12-07T12:36:02;21.30;;;14.27;;
58615;SDS011;44385;51.992;4.206;2023-12-07T12:38:29;21.88;;;14.98;;
58615;SDS011;44385;51.992;4.206;2023-12-07T12:40:55;22.63;;;13.98;;
58615;SDS011;44385;51.992;4.206;2023-12-07T12:43:22;27.20;;;16.20;;
58615;SDS011;44385;51.992;4.206;2023-12-07T12:45:49;20.95;;;14.40;;
58615;SDS011;44385;51.992;4.206;2023-12-07T12:48:17;21.90;;;14.90;;
58615;SDS011;44385;51.992;4.206;2023-12-07T12:50:44;21.60;;;15.27;;
58615;SDS011;44385;51.992;4.206;2023-12-07T12:53:11;23.30;;;14.55;;
58615;SDS011;44385;51.992;4.206;2023-12-07T12:55:38;24.90;;;14.95;;
58615;SDS011;44385;51.992;4.206;2023-12-07T12:58:06;26.10;;;16.00;;
58615;SDS011;44385;51.992;4.206;2023-12-07T13:00:33;28.33;;;16.38;;
58615;SDS011;44385;51.992;4.206;2023-12-07T13:02:59;24.92;;;15.55;;
58615;SDS011;44385;51.992;4.206;2023-12-07T13:05:27;24.92;;;15.20;;
58615;SDS011;44385;51.992;4.206;2023-12-07T13:07:54;25.00;;;16.58;;
58615;SDS011;44385;51.992;4.206;2023-12-07T13:10:20;24.63;;;16.02;;
58615;SDS011;44385;51.992;4.206;2023-12-07T13:12:47;26.90;;;16.23;;
58615;SDS011;44385;51.992;4.206;2023-12-07T13:15:14;26.33;;;17.38;;
58615;SDS011;44385;51.992;4.206;2023-12-07T13:17:41;23.98;;;15.60;;
58615;SDS011;44385;51.992;4.206;2023-12-07T13:20:07;22.80;;;15.57;;
58615;SDS011;44385;51.992;4.206;2023-12-07T13:22:37;27.95;;;16.73;;
58615;SDS011;44385;51.992;4.206;2023-12-07T13:25:04;28.10;;;16.83;;
58615;SDS011;44385;51.992;4.206;2023-12-07T13:27:31;27.02;;;16.05;;
58615;SDS011;44385;51.992;4.206;2023-12-07T13:29:58;25.70;;;17.52;;
58615;SDS011;44385;51.992;4.206;2023-12-07T13:32:25;28.40;;;17.35;;
58615;SDS011;44385;51.992;4.206;2023-12-07T13:34:51;24.67;;;15.38;;
58615;SDS011;44385;51.992;4.206;2023-12-07T13:37:18;28.15;;;16.83;;
58615;SDS011;44385;51.992;4.206;2023-12-07T13:39:47;28.50;;;17.73;;
58615;SDS011;44385;51.992;4.206;2023-12-07T13:42:21;25.02;;;14.75;;
58615;SDS011;44385;51.992;4.206;2023-12-07T13:44:47;30.08;;;17.00;;
58615;SDS011;44385;51.992;4.206;2023-12-07T13:47:18;24.58;;;16.02;;
58615;SDS011;44385;51.992;4.206;2023-12-07T13:49:45;25.73;;;16.27;;
58615;SDS011;44385;51.992;4.206;2023-12-07T13:52:12;28.60;;;16.52;;
58615;SDS011;44385;51.992;4.206;2023-12-07T13:54:41;28.30;;;15.73;;
58615;SDS011;44385;51.992;4.206;2023-12-07T13:57:09;26.85;;;17.05;;
58615;SDS011;44385;51.992;4.206;2023-12-07T13:59:37;29.98;;;16.77;;
58615;SDS011;44385;51.992;4.206;2023-12-07T14:02:05;25.45;;;16.67;;
58615;SDS011;44385;51.992;4.206;2023-12-07T14:04:31;27.58;;;17.33;;
58615;SDS011;44385;51.992;4.206;2023-12-07T14:07:06;30.02;;;18.00;;
58615;SDS011;44385;51.992;4.206;2023-12-07T14:09:33;28.88;;;18.20;;
58615;SDS011;44385;51.992;4.206;2023-12-07T14:12:00;25.90;;;16.65;;
58615;SDS011;44385;51.992;4.206;2023-12-07T14:14:28;23.98;;;16.00;;
58615;SDS011;44385;51.992;4.206;2023-12-07T14:16:55;27.75;;;17.70;;
58615;SDS011;44385;51.992;4.206;2023-12-07T14:19:21;27.42;;;16.63;;
58615;SDS011;44385;51.992;4.206;2023-12-07T14:21:50;30.30;;;17.83;;
58615;SDS011;44385;51.992;4.206;2023-12-07T14:24:17;27.23;;;16.98;;
58615;SDS011;44385;51.992;4.206;2023-12-07T14:26:44;27.33;;;18.15;;